createdAt,value
2022-10-10T00:02:03.854Z,10.70
2022-10-10T00:04:34.623Z,10.60
2022-10-10T00:07:05.033Z,24.27
2022-10-10T00:09:35.900Z,8.88
2022-10-10T00:12:06.408Z,8.82
2022-10-10T00:14:37.126Z,8.45
2022-10-10T00:17:08.029Z,9.25
2022-10-10T00:19:38.895Z,8.13
2022-10-10T00:22:09.591Z,8.38
2022-10-10T00:24:39.910Z,11.15
2022-10-10T00:27:10.206Z,9.68
2022-10-10T00:29:41.172Z,10.60
2022-10-10T00:32:11.495Z,7.63
2022-10-10T00:34:42.134Z,9.23
2022-10-10T00:37:12.542Z,8.43
2022-10-10T00:39:42.978Z,11.93
2022-10-10T00:42:20.707Z,6.35
2022-10-10T00:45:10.360Z,6.57
2022-10-10T00:47:40.640Z,5.85
2022-10-10T00:50:11.151Z,9.52
2022-10-10T00:52:42.147Z,10.65
2022-10-10T00:55:14.030Z,8.40
2022-10-10T00:57:44.823Z,10.13
2022-10-10T01:00:15.520Z,8.48
2022-10-10T01:02:46.016Z,9.25
2022-10-10T01:05:16.128Z,11.80
2022-10-10T01:07:47.253Z,12.00
2022-10-10T01:10:19.971Z,10.23
2022-10-10T01:13:01.481Z,10.07
2022-10-10T01:15:51.776Z,9.13
2022-10-10T01:18:30.243Z,9.38
2022-10-10T01:21:19.973Z,8.38
2022-10-10T01:24:09.941Z,9.07
2022-10-10T01:26:59.961Z,7.70
2022-10-10T01:29:35.379Z,10.15
2022-10-10T01:32:08.047Z,8.77
2022-10-10T01:34:57.673Z,7.38
2022-10-10T01:37:34.812Z,10.07
2022-10-10T01:40:24.917Z,7.43
2022-10-10T01:42:58.052Z,8.10
2022-10-10T01:45:29.380Z,8.32
2022-10-10T01:48:02.894Z,7.68
2022-10-10T01:50:34.722Z,7.03
2022-10-10T01:53:11.993Z,6.63
2022-10-10T01:55:50.678Z,5.80
2022-10-10T01:58:28.514Z,6.68
2022-10-10T02:01:18.149Z,6.88
2022-10-10T02:03:51.209Z,5.78
2022-10-10T02:06:40.808Z,5.70
2022-10-10T02:09:12.833Z,4.60
2022-10-10T02:11:43.822Z,5.95
2022-10-10T02:14:19.058Z,6.53
2022-10-10T02:16:50.514Z,6.40
2022-10-10T02:19:22.753Z,17.02
2022-10-10T02:21:54.627Z,6.32
2022-10-10T02:24:26.985Z,14.70
2022-10-10T02:27:01.790Z,7.88
2022-10-10T02:29:35.039Z,5.88
2022-10-10T02:32:09.870Z,14.35
2022-10-10T02:34:41.373Z,6.40
2022-10-10T02:37:14.151Z,6.00
2022-10-10T02:39:50.619Z,10.13
2022-10-10T02:42:22.875Z,8.35
2022-10-10T02:44:53.191Z,6.10
2022-10-10T02:47:23.923Z,7.07
2022-10-10T02:49:54.789Z,6.85
2022-10-10T02:52:25.087Z,6.07
2022-10-10T02:54:55.635Z,6.00
2022-10-10T02:57:26.012Z,7.13
2022-10-10T02:59:56.635Z,5.50
2022-10-10T03:02:27.425Z,11.80
2022-10-10T03:04:57.351Z,10.75
2022-10-10T03:07:27.861Z,9.52
2022-10-10T03:09:58.750Z,4.95
2022-10-10T03:12:29.134Z,4.72
2022-10-10T03:14:59.207Z,5.65
2022-10-10T03:28:06.619Z,7.22
2022-10-10T03:30:37.035Z,6.40
2022-10-10T03:33:07.981Z,7.47
2022-10-10T03:35:38.367Z,6.60
2022-10-10T03:38:09.025Z,5.40
2022-10-10T03:40:42.471Z,5.57
2022-10-10T03:43:13.744Z,6.15
2022-10-10T03:45:45.867Z,8.63
2022-10-10T03:48:17.076Z,5.68
2022-10-10T03:50:47.704Z,5.63
2022-10-10T03:53:18.144Z,6.15
2022-10-10T03:55:48.661Z,6.38
2022-10-10T03:58:22.937Z,6.28
2022-10-10T04:00:58.724Z,6.47
2022-10-10T04:03:29.254Z,5.00
2022-10-10T04:05:59.964Z,6.05
2022-10-10T04:08:32.045Z,5.45
2022-10-10T04:11:02.359Z,6.40
2022-10-10T04:13:32.847Z,5.70
2022-10-10T04:16:03.386Z,6.43
2022-10-10T04:18:34.252Z,5.43
2022-10-10T04:21:05.482Z,5.10
2022-10-10T04:23:36.506Z,6.25
2022-10-10T04:26:07.201Z,7.00
2022-10-10T04:28:37.473Z,6.70
2022-10-10T04:31:08.729Z,7.28
2022-10-10T04:33:39.651Z,8.27
2022-10-10T04:36:09.991Z,7.68
2022-10-10T04:38:40.493Z,9.32
2022-10-10T04:41:11.304Z,8.30
2022-10-10T04:43:41.804Z,7.32
2022-10-10T04:46:11.935Z,9.43
2022-10-10T04:48:42.502Z,8.38
2022-10-10T04:51:12.877Z,8.55
2022-10-10T04:53:48.121Z,8.05
2022-10-10T04:56:20.460Z,8.85
2022-10-10T04:58:50.666Z,7.57
2022-10-10T05:01:20.817Z,7.55
2022-10-10T05:03:51.315Z,6.50
2022-10-10T05:06:21.877Z,7.00
2022-10-10T05:08:52.238Z,7.57
2022-10-10T05:11:22.420Z,7.63
2022-10-10T05:13:52.913Z,7.22
2022-10-10T05:16:23.663Z,7.07
2022-10-10T05:18:53.882Z,7.38
2022-10-10T05:21:25.003Z,7.22
2022-10-10T05:23:56.172Z,6.70
2022-10-10T05:26:26.997Z,7.30
2022-10-10T05:28:57.541Z,6.15
2022-10-10T05:31:28.289Z,10.40
2022-10-10T05:33:59.070Z,17.13
2022-10-10T05:36:32.284Z,25.20
2022-10-10T05:39:03.931Z,19.42
2022-10-10T05:41:34.331Z,6.10
2022-10-10T05:44:04.592Z,15.23
2022-10-10T05:46:34.584Z,22.55
2022-10-10T05:49:05.109Z,6.95
2022-10-10T05:51:35.562Z,6.70
2022-10-10T05:54:07.230Z,7.18
2022-10-10T05:56:37.753Z,7.90
2022-10-10T05:59:08.389Z,6.68
2022-10-10T06:01:39.083Z,8.77
2022-10-10T06:04:10.198Z,7.45
2022-10-10T06:06:40.535Z,7.38
2022-10-10T06:09:11.650Z,7.78
2022-10-10T06:11:42.198Z,9.82
2022-10-10T06:14:13.150Z,7.05
2022-10-10T06:16:44.998Z,7.70
2022-10-10T06:19:15.379Z,6.97
2022-10-10T06:21:45.855Z,7.68
2022-10-10T06:24:16.471Z,7.43
2022-10-10T06:26:46.736Z,7.43
2022-10-10T06:29:17.632Z,8.05
2022-10-10T06:31:47.705Z,7.60
2022-10-10T06:34:18.152Z,7.60
2022-10-10T06:36:48.634Z,7.97
2022-10-10T06:39:19.098Z,6.35
2022-10-10T06:41:51.281Z,6.97
2022-10-10T06:44:22.616Z,7.50
2022-10-10T06:46:53.059Z,9.07
2022-10-10T06:49:26.564Z,7.88
2022-10-10T06:51:57.832Z,7.70
2022-10-10T06:54:28.267Z,8.00
2022-10-10T06:57:01.821Z,8.77
2022-10-10T06:59:31.904Z,8.85
2022-10-10T07:02:02.556Z,8.95
2022-10-10T07:04:33.037Z,8.65
2022-10-10T07:07:03.172Z,7.88
2022-10-10T07:09:33.224Z,12.43
2022-10-10T07:12:03.624Z,8.48
2022-10-10T07:14:34.190Z,13.52
2022-10-10T07:17:07.309Z,8.43
2022-10-10T07:19:39.429Z,6.88
2022-10-10T07:22:09.878Z,8.25
2022-10-10T07:24:40.008Z,7.90
2022-10-10T07:27:11.052Z,8.05
2022-10-10T07:29:43.022Z,6.63
2022-10-10T07:32:19.131Z,6.93
2022-10-10T07:34:52.572Z,7.43
2022-10-10T07:37:26.540Z,7.15
2022-10-10T07:40:02.988Z,8.20
2022-10-10T07:42:36.110Z,9.15
2022-10-10T07:45:08.337Z,7.95
2022-10-10T07:47:38.959Z,8.38
2022-10-10T07:50:11.339Z,9.52
2022-10-10T07:52:44.807Z,7.50
2022-10-10T07:55:18.259Z,6.78
2022-10-10T07:57:53.107Z,8.52
2022-10-10T08:00:23.897Z,8.90
2022-10-10T08:02:54.755Z,8.25
2022-10-10T08:05:25.593Z,8.73
2022-10-10T08:07:55.860Z,8.85
2022-10-10T08:10:26.481Z,7.68
2022-10-10T08:12:56.873Z,8.63
2022-10-10T08:15:29.114Z,8.15
2022-10-10T08:18:01.767Z,10.57
2022-10-10T08:20:32.823Z,8.13
2022-10-10T08:23:06.490Z,7.97
2022-10-10T08:25:37.203Z,7.82
2022-10-10T08:28:07.960Z,9.10
2022-10-10T08:30:43.058Z,8.40
2022-10-10T08:33:13.531Z,17.80
2022-10-10T08:35:44.006Z,9.40
2022-10-10T08:38:16.170Z,9.32
2022-10-10T08:40:49.347Z,8.77
2022-10-10T08:43:26.368Z,11.10
2022-10-10T08:45:57.798Z,8.02
2022-10-10T08:48:30.200Z,8.77
2022-10-10T08:51:04.844Z,10.75
2022-10-10T08:53:38.730Z,10.00
2022-10-10T08:56:09.923Z,8.65
2022-10-10T08:58:41.873Z,8.90
2022-10-10T09:01:17.187Z,9.43
2022-10-10T09:03:57.379Z,10.52
2022-10-10T09:06:43.004Z,9.38
2022-10-10T09:09:32.671Z,9.57
2022-10-10T09:12:09.398Z,9.70
2022-10-10T09:15:02.415Z,8.90
2022-10-10T09:17:52.939Z,8.18
2022-10-10T09:20:42.917Z,8.85
2022-10-10T09:23:32.485Z,9.73
2022-10-10T09:26:10.257Z,8.98
2022-10-10T09:28:55.145Z,9.55
2022-10-10T09:31:44.773Z,9.20
2022-10-10T09:34:21.385Z,9.52
2022-10-10T09:36:55.068Z,9.45
2022-10-10T09:39:48.349Z,13.45
2022-10-10T09:42:21.426Z,12.15
2022-10-10T09:44:52.021Z,10.00
2022-10-10T09:47:23.719Z,11.15
2022-10-10T09:49:53.887Z,13.75
2022-10-10T09:52:29.296Z,18.55
2022-10-10T09:55:02.431Z,13.57
2022-10-10T09:57:38.186Z,10.95
2022-10-10T10:00:27.789Z,11.13
2022-10-10T10:03:17.513Z,11.32
2022-10-10T10:06:04.532Z,11.45
2022-10-10T10:08:39.280Z,13.02
2022-10-10T10:11:32.392Z,11.25
2022-10-10T10:14:04.703Z,12.77
2022-10-10T10:16:39.711Z,12.90
2022-10-10T10:19:29.652Z,13.30
2022-10-10T10:22:00.700Z,30.17
2022-10-10T10:24:37.968Z,18.77
2022-10-10T10:27:27.530Z,19.08
2022-10-10T10:30:01.471Z,15.88
2022-10-10T10:32:51.112Z,12.85
2022-10-10T10:35:41.736Z,11.70
2022-10-10T10:38:32.546Z,10.93
2022-10-10T10:41:22.646Z,10.90
2022-10-10T10:44:08.835Z,10.93
2022-10-10T10:46:58.524Z,11.32
2022-10-10T10:49:36.058Z,13.30
2022-10-10T10:52:25.823Z,12.30
2022-10-10T10:55:11.738Z,9.52
2022-10-10T10:58:37.071Z,14.80
2022-10-10T11:01:24.374Z,16.00
2022-10-10T11:05:21.053Z,17.83
2022-10-10T11:07:18.518Z,19.20
2022-10-10T11:10:09.448Z,22.73
2022-10-10T11:12:59.345Z,17.67
2022-10-10T11:16:04.772Z,17.67
2022-10-10T11:18:35.476Z,14.82
2022-10-10T11:21:15.597Z,14.43
2022-10-10T11:23:48.664Z,14.07
2022-10-10T11:26:26.866Z,19.02
2022-10-10T11:29:17.485Z,18.83
2022-10-10T11:31:55.520Z,19.00
2022-10-10T11:34:32.855Z,19.88
2022-10-10T11:37:07.109Z,19.15
2022-10-10T11:39:42.411Z,18.27
2022-10-10T11:42:32.021Z,15.45
2022-10-10T11:45:05.544Z,13.75
2022-10-10T11:47:38.533Z,13.45
2022-10-10T11:50:21.471Z,17.30
2022-10-10T11:52:57.107Z,12.82
2022-10-10T11:55:47.281Z,33.72
2022-10-10T11:58:30.222Z,15.20
2022-10-10T12:01:03.390Z,16.15
2022-10-10T12:03:34.394Z,14.05
2022-10-10T12:06:12.006Z,18.42
2022-10-10T12:08:47.984Z,13.05
2022-10-10T12:11:27.132Z,12.23
2022-10-10T12:13:59.751Z,14.10
2022-10-10T12:16:31.924Z,12.73
2022-10-10T12:19:07.065Z,12.68
2022-10-10T12:21:54.663Z,11.55
2022-10-10T12:24:26.493Z,10.77
2022-10-10T12:27:14.336Z,34.58
2022-10-10T12:30:03.965Z,13.80
2022-10-10T12:32:44.183Z,14.68
2022-10-10T12:35:34.356Z,11.20
2022-10-10T12:38:12.818Z,9.70
2022-10-10T12:41:03.893Z,11.05
2022-10-10T12:43:53.772Z,11.32
2022-10-10T12:46:26.457Z,12.35
2022-10-10T12:49:16.557Z,10.85
2022-10-10T12:51:47.805Z,25.10
2022-10-10T12:54:27.314Z,11.18
2022-10-10T12:57:04.847Z,9.65
2022-10-10T12:59:37.924Z,12.23
2022-10-10T13:02:15.562Z,12.23
2022-10-10T13:04:46.198Z,27.42
2022-10-10T13:07:22.219Z,12.43
2022-10-10T13:09:53.891Z,10.90
2022-10-10T13:12:29.408Z,10.35
2022-10-10T13:15:00.139Z,12.48
2022-10-10T13:17:41.363Z,10.32
2022-10-10T13:20:28.433Z,10.82
2022-10-10T13:22:59.543Z,10.43
2022-10-10T13:25:30.376Z,10.00
2022-10-10T13:28:01.139Z,11.98
2022-10-10T13:30:31.424Z,10.77
2022-10-10T13:33:02.248Z,12.40
2022-10-10T13:35:33.896Z,12.48
2022-10-10T13:38:04.668Z,11.93
2022-10-10T13:40:35.364Z,10.23
2022-10-10T13:43:06.121Z,12.38
2022-10-10T13:45:47.917Z,12.02
2022-10-10T13:48:37.542Z,10.68
2022-10-10T13:51:13.738Z,10.20
2022-10-10T13:53:51.101Z,13.30
2022-10-10T13:56:37.148Z,10.23
2022-10-10T13:59:14.200Z,11.90
2022-10-10T14:01:46.103Z,13.13
2022-10-10T14:04:22.428Z,12.43
2022-10-10T14:07:06.149Z,28.00
2022-10-10T14:09:41.870Z,11.43
2022-10-10T14:12:21.212Z,11.93
2022-10-10T14:14:52.500Z,10.73
2022-10-10T14:17:23.215Z,11.25
2022-10-10T14:19:54.132Z,12.32
2022-10-10T14:22:24.737Z,11.30
2022-10-10T14:24:55.271Z,11.93
2022-10-10T14:27:27.526Z,13.13
2022-10-10T14:30:00.055Z,15.20
2022-10-10T14:32:30.475Z,60.08
2022-10-10T14:35:01.172Z,22.23
2022-10-10T14:37:33.473Z,17.73
2022-10-10T14:40:04.477Z,13.85
2022-10-10T14:42:34.751Z,13.32
2022-10-10T14:45:04.911Z,12.73
2022-10-10T14:47:35.280Z,12.73
2022-10-10T14:50:05.622Z,12.32
2022-10-10T14:52:36.220Z,11.55
2022-10-10T14:55:06.775Z,13.00
2022-10-10T14:57:37.401Z,14.32
2022-10-10T15:00:08.696Z,15.60
2022-10-10T15:02:44.539Z,12.38
2022-10-10T15:05:16.221Z,14.13
2022-10-10T15:07:47.080Z,18.60
2022-10-10T15:10:35.049Z,14.90
2022-10-10T15:13:06.383Z,13.68
2022-10-10T15:15:36.619Z,14.30
2022-10-10T15:18:20.951Z,17.85
2022-10-10T15:20:57.269Z,15.13
2022-10-10T15:23:28.735Z,42.78
2022-10-10T15:26:02.279Z,26.77
2022-10-10T15:28:33.250Z,13.93
2022-10-10T15:31:04.064Z,13.90
2022-10-10T15:33:35.142Z,16.98
2022-10-10T15:36:09.936Z,15.30
2022-10-10T15:38:41.435Z,14.43
2022-10-10T15:41:12.374Z,14.45
2022-10-10T15:43:55.837Z,12.27
2022-10-10T15:46:28.064Z,14.48
2022-10-10T15:49:02.295Z,14.25
2022-10-10T15:51:32.905Z,16.67
2022-10-10T15:54:03.737Z,16.38
2022-10-10T15:56:34.942Z,12.10
2022-10-10T15:59:06.243Z,20.83
2022-10-10T16:01:39.955Z,12.60
2022-10-10T16:04:09.988Z,15.23
2022-10-10T16:06:40.100Z,14.15
2022-10-10T16:09:27.735Z,15.05
2022-10-10T16:11:58.635Z,14.02
2022-10-10T16:14:28.967Z,17.00
2022-10-10T16:17:02.104Z,14.95
2022-10-10T16:19:32.884Z,15.27
2022-10-10T16:22:03.076Z,15.35
2022-10-10T16:24:33.718Z,18.45
2022-10-10T16:27:04.080Z,15.90
2022-10-10T16:29:34.391Z,19.75
2022-10-10T16:32:05.238Z,15.55
2022-10-10T16:34:36.358Z,17.27
2022-10-10T16:37:06.932Z,17.27
2022-10-10T16:39:39.530Z,16.23
2022-10-10T16:42:09.793Z,15.32
2022-10-10T16:44:39.945Z,14.57
2022-10-10T16:47:10.479Z,16.70
2022-10-10T16:49:42.316Z,15.23
2022-10-10T16:52:13.051Z,15.48
2022-10-10T16:54:43.611Z,13.38
2022-10-10T16:57:15.911Z,13.05
2022-10-10T16:59:46.905Z,15.40
2022-10-10T17:02:17.888Z,12.07
2022-10-10T17:04:48.764Z,12.30
2022-10-10T17:07:19.547Z,12.75
2022-10-10T17:09:49.760Z,15.35
2022-10-10T17:12:21.224Z,15.35
2022-10-10T17:14:51.783Z,12.32
2022-10-10T17:17:24.010Z,12.02
2022-10-10T17:19:54.662Z,13.68
2022-10-10T17:22:24.783Z,12.23
2022-10-10T17:24:55.454Z,15.02
2022-10-10T17:27:25.989Z,12.00
2022-10-10T17:29:56.731Z,13.60
2022-10-10T17:32:27.988Z,11.63
2022-10-10T17:34:58.272Z,12.82
2022-10-10T17:37:28.673Z,11.35
2022-10-10T17:39:59.024Z,13.07
2022-10-10T17:42:29.440Z,12.82
2022-10-10T17:45:01.169Z,12.07
2022-10-10T17:47:32.273Z,13.63
2022-10-10T17:50:02.968Z,13.85
2022-10-10T17:52:33.376Z,11.60
2022-10-10T17:55:03.577Z,12.98
2022-10-10T17:57:35.997Z,10.48
2022-10-10T18:00:07.350Z,12.52
2022-10-10T18:02:37.692Z,14.10
2022-10-10T18:05:07.998Z,12.60
2022-10-10T18:07:38.423Z,12.23
2022-10-10T18:10:09.322Z,11.98
2022-10-10T18:12:39.659Z,14.32
2022-10-10T18:15:11.215Z,11.80
2022-10-10T18:17:41.612Z,12.00
2022-10-10T18:20:12.464Z,12.40
2022-10-10T18:22:43.209Z,16.70
2022-10-10T18:25:13.304Z,12.80
2022-10-10T18:27:43.707Z,12.82
2022-10-10T18:30:14.287Z,12.55
2022-10-10T18:32:45.611Z,12.55
2022-10-10T18:35:16.340Z,14.13
2022-10-10T18:37:47.570Z,13.40
2022-10-10T18:40:21.521Z,12.63
2022-10-10T18:42:51.935Z,12.68
2022-10-10T18:45:22.200Z,15.32
2022-10-10T18:47:52.578Z,13.27
2022-10-10T18:50:22.884Z,14.43
2022-10-10T18:52:55.095Z,13.38
2022-10-10T18:55:31.609Z,15.05
2022-10-10T18:58:01.880Z,14.10
2022-10-10T19:00:32.443Z,13.57
2022-10-10T19:03:02.823Z,14.43
2022-10-10T19:05:33.156Z,14.43
2022-10-10T19:08:04.075Z,13.88
2022-10-10T19:10:34.397Z,13.32
2022-10-10T19:13:04.778Z,13.65
2022-10-10T19:15:36.127Z,14.70
2022-10-10T19:18:06.499Z,13.82
2022-10-10T19:20:37.387Z,15.10
2022-10-10T19:23:07.940Z,14.70
2022-10-10T19:25:41.595Z,13.50
2022-10-10T19:28:12.400Z,15.60
2022-10-10T19:30:43.664Z,16.13
2022-10-10T19:33:14.718Z,15.75
2022-10-10T19:35:51.402Z,19.75
2022-10-10T19:38:22.732Z,17.20
2022-10-10T19:40:54.542Z,16.70
2022-10-10T19:43:24.605Z,15.93
2022-10-10T19:45:55.309Z,17.23
2022-10-10T19:48:26.322Z,13.88
2022-10-10T19:50:56.850Z,15.55
2022-10-10T19:53:26.894Z,13.93
2022-10-10T19:56:01.975Z,16.58
2022-10-10T19:58:33.112Z,16.13
2022-10-10T20:01:03.355Z,16.67
2022-10-10T20:03:33.886Z,16.92
2022-10-10T20:06:04.272Z,17.98
2022-10-10T20:08:35.361Z,18.50
2022-10-10T20:11:06.326Z,16.02
2022-10-10T20:13:36.469Z,14.98
2022-10-10T20:16:08.051Z,15.10
2022-10-10T20:18:39.897Z,16.75
2022-10-10T20:21:16.319Z,15.15
2022-10-10T20:23:47.443Z,15.52
2022-10-10T20:26:20.342Z,15.23
2022-10-10T20:28:52.055Z,15.52
2022-10-10T20:31:24.026Z,16.23
2022-10-10T20:33:55.725Z,14.60
2022-10-10T20:36:27.002Z,16.00
2022-10-10T20:38:58.933Z,15.07
2022-10-10T20:41:30.333Z,15.90
2022-10-10T20:44:02.051Z,17.90
2022-10-10T20:46:34.466Z,16.48
2022-10-10T20:49:05.468Z,16.38
2022-10-10T20:51:35.764Z,19.55
2022-10-10T20:54:06.844Z,16.33
2022-10-10T20:56:38.122Z,15.27
2022-10-10T20:59:08.941Z,17.17
2022-10-10T21:01:40.143Z,18.52
2022-10-10T21:04:15.522Z,17.58
2022-10-10T21:06:47.847Z,19.10
2022-10-10T21:09:18.341Z,18.17
2022-10-10T21:11:50.926Z,18.27
2022-10-10T21:14:22.088Z,17.13
2022-10-10T21:16:52.425Z,16.73
2022-10-10T21:19:23.413Z,17.90
2022-10-10T21:21:53.761Z,20.77
2022-10-10T21:24:24.541Z,19.35
2022-10-10T21:26:54.884Z,17.05
2022-10-10T21:29:25.343Z,17.92
2022-10-10T21:31:55.479Z,19.33
2022-10-10T21:34:25.666Z,20.65
2022-10-10T21:36:55.835Z,19.48
2022-10-10T21:39:26.208Z,20.10
2022-10-10T21:41:56.288Z,20.65
2022-10-10T21:44:26.909Z,22.35
2022-10-10T21:46:57.492Z,22.15
2022-10-10T21:49:27.543Z,19.63
2022-10-10T21:51:57.646Z,22.35
2022-10-10T21:54:28.721Z,23.88
2022-10-10T21:56:59.282Z,22.55
2022-10-10T21:59:33.226Z,21.85
2022-10-10T22:02:03.667Z,24.35
2022-10-10T22:04:34.331Z,22.05
2022-10-10T22:07:06.213Z,23.50
2022-10-10T22:09:37.169Z,20.88
2022-10-10T22:12:07.934Z,20.60
2022-10-10T22:14:38.006Z,19.33
2022-10-10T22:17:08.060Z,17.90
2022-10-10T22:19:39.242Z,22.45
2022-10-10T22:22:09.901Z,23.70
2022-10-10T22:24:40.220Z,22.40
2022-10-10T22:27:10.991Z,21.27
2022-10-10T22:29:41.689Z,19.25
2022-10-10T22:32:12.198Z,20.85
2022-10-10T22:34:43.018Z,19.67
2022-10-10T22:37:13.505Z,20.45
2022-10-10T22:39:44.711Z,20.90
2022-10-10T22:42:16.427Z,20.23
2022-10-10T22:44:46.990Z,19.52
2022-10-10T22:47:17.164Z,33.63
2022-10-10T22:49:47.260Z,16.25
2022-10-10T22:52:17.352Z,16.80
2022-10-10T22:54:47.508Z,19.05
2022-10-10T22:57:18.635Z,17.38
2022-10-10T22:59:49.187Z,17.95
2022-10-10T23:02:20.047Z,17.83
2022-10-10T23:04:50.785Z,19.77
2022-10-10T23:07:21.778Z,69.25
2022-10-10T23:09:52.523Z,83.75
2022-10-10T23:12:25.086Z,37.00
2022-10-10T23:14:55.410Z,42.00
2022-10-10T23:17:25.838Z,39.85
2022-10-10T23:19:55.950Z,35.13
2022-10-10T23:22:26.363Z,49.63
2022-10-10T23:24:56.837Z,41.97
2022-10-10T23:27:27.836Z,18.25
2022-10-10T23:29:58.335Z,16.48
2022-10-10T23:32:31.061Z,16.40
2022-10-10T23:35:01.807Z,16.17
2022-10-10T23:37:32.639Z,16.65
2022-10-10T23:40:03.598Z,17.40
2022-10-10T23:42:34.192Z,17.30
2022-10-10T23:45:04.799Z,18.98
2022-10-10T23:47:35.415Z,19.63
2022-10-10T23:50:06.465Z,25.17
2022-10-10T23:52:37.068Z,17.80
2022-10-10T23:55:08.216Z,16.88
2022-10-10T23:57:39.601Z,18.17
